createdAt,value
2018-06-23T00:00:01.145Z,2.55
2018-06-23T00:00:37.929Z,2.98
2018-06-23T00:01:11.345Z,2.50
2018-06-23T00:01:44.749Z,3.20
2018-06-23T00:02:18.253Z,2.47
2018-06-23T00:02:51.736Z,2.45
2018-06-23T00:03:25.272Z,2.85
2018-06-23T00:03:58.742Z,3.12
2018-06-23T00:04:32.163Z,3.12
2018-06-23T00:05:06.042Z,2.65
2018-06-23T00:05:39.492Z,2.40
2018-06-23T00:06:13.031Z,2.20
2018-06-23T00:06:46.432Z,2.50
2018-06-23T00:07:19.867Z,2.65
2018-06-23T00:07:53.276Z,3.00
2018-06-23T00:08:26.757Z,2.77
2018-06-23T00:09:00.048Z,2.40
2018-06-23T00:09:33.715Z,2.25
2018-06-23T00:10:07.008Z,2.30
2018-06-23T00:10:40.379Z,2.20
2018-06-23T00:11:14.123Z,2.70
2018-06-23T00:11:47.753Z,2.50
2018-06-23T00:12:21.244Z,2.40
2018-06-23T00:12:54.687Z,3.10
2018-06-23T00:13:28.097Z,2.80
2018-06-23T00:14:01.530Z,2.85
2018-06-23T00:14:34.943Z,2.77
2018-06-23T00:15:08.452Z,3.10
2018-06-23T00:15:41.884Z,3.08
2018-06-23T00:16:15.448Z,2.50
2018-06-23T00:16:48.819Z,2.50
2018-06-23T00:17:22.188Z,2.40
2018-06-23T00:17:55.573Z,2.92
2018-06-23T00:18:35.725Z,2.37
2018-06-23T00:19:09.148Z,3.12
2018-06-23T00:19:42.554Z,2.92
2018-06-23T00:20:15.973Z,2.80
2018-06-23T00:20:49.398Z,2.17
2018-06-23T00:21:22.853Z,2.70
2018-06-23T00:21:56.286Z,2.27
2018-06-23T00:22:30.122Z,2.37
2018-06-23T00:23:03.516Z,3.10
2018-06-23T00:23:36.678Z,3.00
2018-06-23T00:24:10.020Z,2.55
2018-06-23T00:24:43.638Z,2.50
2018-06-23T00:25:22.404Z,2.47
2018-06-23T00:26:01.057Z,3.33
2018-06-23T00:26:34.425Z,2.30
2018-06-23T00:27:07.819Z,2.65
2018-06-23T00:27:41.228Z,2.95
2018-06-23T00:28:14.953Z,2.40
2018-06-23T00:28:48.306Z,2.20
2018-06-23T00:29:21.703Z,2.70
2018-06-23T00:29:54.779Z,2.67
2018-06-23T00:30:28.173Z,2.90
2018-06-23T00:31:01.585Z,2.33
2018-06-23T00:31:35.017Z,2.80
2018-06-23T00:32:09.021Z,3.25
2018-06-23T00:32:42.544Z,2.50
2018-06-23T00:33:15.997Z,3.02
2018-06-23T00:33:49.407Z,2.95
2018-06-23T00:34:22.831Z,3.50
2018-06-23T00:34:56.251Z,2.55
2018-06-23T00:35:29.361Z,3.30
2018-06-23T00:36:02.801Z,2.50
2018-06-23T00:36:36.279Z,3.10
2018-06-23T00:37:09.657Z,2.65
2018-06-23T00:37:43.045Z,3.10
2018-06-23T00:38:16.495Z,2.60
2018-06-23T00:38:50.226Z,3.33
2018-06-23T00:39:23.609Z,2.80
2018-06-23T00:39:56.961Z,2.20
2018-06-23T00:40:30.362Z,2.98
2018-06-23T00:41:03.892Z,2.52
2018-06-23T00:41:37.257Z,2.80
2018-06-23T00:42:10.439Z,3.30
2018-06-23T00:42:44.524Z,3.15
2018-06-23T00:43:17.663Z,2.20
2018-06-23T00:43:50.776Z,2.70
2018-06-23T00:44:23.920Z,2.90
2018-06-23T00:44:56.990Z,2.85
2018-06-23T00:45:30.150Z,2.98
2018-06-23T00:46:03.588Z,3.45
2018-06-23T00:46:36.777Z,3.15
2018-06-23T00:47:09.889Z,2.25
2018-06-23T00:47:43.020Z,3.02
2018-06-23T00:48:16.141Z,2.55
2018-06-23T00:48:50.036Z,3.30
2018-06-23T00:49:23.111Z,2.47
2018-06-23T00:49:56.235Z,2.40
2018-06-23T00:50:29.336Z,3.10
2018-06-23T00:51:02.471Z,3.12
2018-06-23T00:51:35.620Z,2.70
2018-06-23T00:52:08.741Z,3.00
2018-06-23T00:52:41.848Z,2.65
2018-06-23T00:53:14.952Z,2.50
2018-06-23T00:53:48.097Z,3.25
2018-06-23T00:54:21.375Z,3.75
2018-06-23T00:54:54.591Z,3.45
2018-06-23T00:55:27.775Z,3.05
2018-06-23T00:56:01.264Z,2.87
2018-06-23T00:56:34.578Z,2.70
2018-06-23T00:57:07.671Z,2.80
2018-06-23T00:57:40.764Z,3.00
2018-06-23T00:58:13.824Z,3.30
2018-06-23T00:58:52.384Z,3.37
2018-06-23T00:59:31.021Z,2.80
2018-06-23T01:00:04.153Z,2.45
2018-06-23T01:00:37.319Z,2.90
2018-06-23T01:01:10.489Z,2.55
2018-06-23T01:01:43.588Z,3.10
2018-06-23T01:02:16.706Z,2.45
2018-06-23T01:02:49.787Z,3.25
2018-06-23T01:03:22.865Z,2.52
2018-06-23T01:03:55.972Z,2.83
2018-06-23T01:04:29.065Z,2.55
2018-06-23T01:05:02.200Z,3.10
2018-06-23T01:05:35.279Z,3.35
2018-06-23T01:06:08.338Z,2.83
2018-06-23T01:06:41.412Z,2.70
2018-06-23T01:07:14.756Z,2.30
2018-06-23T01:07:47.860Z,2.40
2018-06-23T01:08:20.955Z,2.40
2018-06-23T01:08:54.166Z,2.65
2018-06-23T01:09:27.365Z,2.70
2018-06-23T01:10:00.443Z,2.75
2018-06-23T01:10:33.568Z,2.80
2018-06-23T01:11:06.785Z,3.20
2018-06-23T01:11:39.877Z,3.15
2018-06-23T01:12:12.987Z,3.75
2018-06-23T01:12:46.132Z,3.37
2018-06-23T01:13:19.231Z,3.65
2018-06-23T01:13:52.492Z,3.02
2018-06-23T01:14:25.771Z,3.42
2018-06-23T01:14:59.032Z,3.55
2018-06-23T01:15:32.216Z,3.30
2018-06-23T01:16:05.698Z,3.65
2018-06-23T01:16:38.858Z,2.80
2018-06-23T01:17:12.061Z,2.30
2018-06-23T01:17:45.175Z,2.72
2018-06-23T01:18:18.258Z,3.20
2018-06-23T01:18:51.331Z,2.80
2018-06-23T01:19:24.781Z,2.77
2018-06-23T01:19:57.911Z,2.60
2018-06-23T01:20:31.118Z,2.72
2018-06-23T01:21:04.209Z,2.77
2018-06-23T01:21:37.410Z,2.30
2018-06-23T01:22:10.651Z,2.72
2018-06-23T01:22:43.770Z,2.72
2018-06-23T01:23:17.005Z,2.90
2018-06-23T01:23:50.139Z,2.35
2018-06-23T01:24:23.380Z,2.10
2018-06-23T01:24:56.469Z,2.05
2018-06-23T01:25:29.720Z,2.33
2018-06-23T01:26:02.823Z,2.62
2018-06-23T01:26:36.076Z,2.33
2018-06-23T01:27:09.198Z,2.15
2018-06-23T01:27:42.279Z,2.58
2018-06-23T01:28:15.366Z,2.45
2018-06-23T01:28:48.619Z,2.90
2018-06-23T01:29:21.711Z,2.35
2018-06-23T01:29:54.991Z,2.25
2018-06-23T01:30:28.466Z,2.77
2018-06-23T01:31:01.862Z,3.25
2018-06-23T01:31:35.446Z,2.77
2018-06-23T01:32:09.152Z,2.47
2018-06-23T01:32:42.709Z,2.25
2018-06-23T01:33:16.471Z,2.58
2018-06-23T01:33:49.911Z,2.72
2018-06-23T01:34:23.313Z,3.10
2018-06-23T01:34:57.659Z,2.92
2018-06-23T01:35:33.046Z,3.30
2018-06-23T01:36:07.876Z,2.72
2018-06-23T01:36:43.998Z,2.58
2018-06-23T01:37:18.319Z,3.10
2018-06-23T01:37:52.787Z,3.75
2018-06-23T01:38:26.748Z,3.15
2018-06-23T01:39:00.677Z,3.05
2018-06-23T01:39:34.044Z,3.10
2018-06-23T01:40:07.423Z,3.00
2018-06-23T01:40:40.959Z,3.35
2018-06-23T01:41:15.438Z,3.15
2018-06-23T01:41:48.787Z,2.60
2018-06-23T01:42:22.118Z,3.20
2018-06-23T01:42:55.541Z,3.05
2018-06-23T01:43:28.904Z,2.35
2018-06-23T01:44:02.727Z,3.12
2018-06-23T01:44:36.117Z,3.67
2018-06-23T01:45:09.526Z,2.70
2018-06-23T01:45:42.919Z,2.87
2018-06-23T01:46:16.293Z,3.45
2018-06-23T01:46:49.658Z,2.95
2018-06-23T01:47:23.080Z,3.67
2018-06-23T01:47:56.611Z,3.17
2018-06-23T01:48:30.030Z,2.85
2018-06-23T01:49:03.791Z,3.60
2018-06-23T01:49:37.141Z,3.10
2018-06-23T01:50:10.563Z,3.20
2018-06-23T01:50:43.950Z,2.65
2018-06-23T01:51:17.841Z,2.83
2018-06-23T01:51:51.248Z,2.75
2018-06-23T01:52:24.846Z,2.83
2018-06-23T01:52:58.216Z,2.95
2018-06-23T01:53:31.598Z,3.20
2018-06-23T01:54:05.393Z,3.15
2018-06-23T01:54:39.092Z,2.67
2018-06-23T01:55:12.469Z,3.45
2018-06-23T01:55:45.863Z,3.00
2018-06-23T01:56:19.330Z,3.00
2018-06-23T01:56:52.690Z,3.10
2018-06-23T01:57:26.065Z,2.90
2018-06-23T01:57:59.419Z,3.30
2018-06-23T01:58:32.792Z,3.58
2018-06-23T01:59:06.195Z,2.65
2018-06-23T01:59:39.573Z,3.27
2018-06-23T02:00:13.287Z,2.90
2018-06-23T02:00:46.706Z,3.02
2018-06-23T02:01:20.267Z,2.85
2018-06-23T02:01:53.640Z,3.45
2018-06-23T02:02:26.997Z,3.20
2018-06-23T02:03:00.378Z,3.20
2018-06-23T02:03:33.974Z,3.10
2018-06-23T02:04:07.375Z,3.22
2018-06-23T02:04:40.768Z,2.87
2018-06-23T02:05:14.645Z,3.30
2018-06-23T02:05:48.076Z,2.70
2018-06-23T02:06:21.455Z,3.20
2018-06-23T02:06:54.716Z,3.45
2018-06-23T02:07:28.120Z,2.90
2018-06-23T02:08:01.497Z,3.20
2018-06-23T02:08:34.877Z,2.98
2018-06-23T02:09:09.840Z,3.20
2018-06-23T02:09:43.828Z,3.08
2018-06-23T02:10:17.286Z,3.05
2018-06-23T02:10:50.667Z,2.80
2018-06-23T02:11:24.265Z,2.92
2018-06-23T02:11:58.012Z,2.20
2018-06-23T02:12:31.557Z,3.40
2018-06-23T02:13:05.179Z,2.83
2018-06-23T02:13:38.615Z,3.65
2018-06-23T02:14:19.277Z,2.83
2018-06-23T02:14:58.551Z,2.90
2018-06-23T02:15:37.322Z,2.62
2018-06-23T02:16:16.023Z,2.60
2018-06-23T02:16:54.655Z,2.50
2018-06-23T02:17:33.311Z,3.90
2018-06-23T02:20:18.557Z,3.20
2018-06-23T02:20:57.359Z,2.80
2018-06-23T02:23:42.619Z,3.50
2018-06-23T02:24:21.997Z,3.25
2018-06-23T02:25:01.049Z,3.52
2018-06-23T02:25:39.875Z,3.10
2018-06-23T02:26:18.660Z,2.83
2018-06-23T02:26:57.472Z,3.00
2018-06-23T02:27:36.244Z,2.98
2018-06-23T02:28:14.845Z,3.83
2018-06-23T02:28:53.649Z,4.05
2018-06-23T02:29:32.281Z,2.75
2018-06-23T02:30:11.053Z,3.87
2018-06-23T02:30:49.712Z,3.55
2018-06-23T02:31:28.282Z,2.40
2018-06-23T02:32:06.896Z,4.22
2018-06-23T02:32:44.707Z,3.15
2018-06-23T02:33:23.440Z,3.20
2018-06-23T02:34:02.248Z,3.02
2018-06-23T02:34:41.132Z,3.30
2018-06-23T02:35:14.537Z,3.47
2018-06-23T02:35:48.122Z,3.10
2018-06-23T02:36:21.457Z,3.15
2018-06-23T02:36:54.825Z,2.90
2018-06-23T02:37:28.539Z,3.77
2018-06-23T02:38:01.943Z,3.37
2018-06-23T02:38:35.324Z,2.58
2018-06-23T02:39:09.575Z,3.55
2018-06-23T02:39:42.976Z,4.70
2018-06-23T02:40:16.579Z,3.70
2018-06-23T02:40:50.050Z,2.60
2018-06-23T02:41:27.708Z,3.22
2018-06-23T02:42:01.293Z,2.90
2018-06-23T02:42:35.832Z,3.87
2018-06-23T02:43:09.482Z,3.05
2018-06-23T02:43:42.869Z,3.25
2018-06-23T02:44:16.252Z,4.00
2018-06-23T02:44:49.732Z,3.58
2018-06-23T02:45:23.060Z,3.05
2018-06-23T02:45:57.008Z,3.02
2018-06-23T02:46:30.876Z,3.98
2018-06-23T02:47:04.192Z,3.02
2018-06-23T02:47:37.735Z,3.37
2018-06-23T02:48:11.263Z,3.60
2018-06-23T02:48:44.852Z,3.72
2018-06-23T02:49:18.925Z,3.35
2018-06-23T02:49:54.382Z,2.40
2018-06-23T02:50:27.785Z,2.80
2018-06-23T02:51:01.418Z,4.10
2018-06-23T02:51:34.805Z,2.75
2018-06-23T02:52:08.400Z,3.50
2018-06-23T02:52:41.791Z,2.98
2018-06-23T02:53:15.167Z,3.20
2018-06-23T02:53:48.848Z,3.10
2018-06-23T02:54:22.267Z,3.15
2018-06-23T02:54:55.692Z,3.33
2018-06-23T02:55:29.082Z,3.00
2018-06-23T02:56:02.456Z,4.30
2018-06-23T02:56:35.843Z,3.10
2018-06-23T02:57:09.454Z,3.62
2018-06-23T02:57:42.849Z,3.70
2018-06-23T02:58:16.198Z,3.72
2018-06-23T02:58:49.921Z,2.75
2018-06-23T02:59:23.294Z,2.90
2018-06-23T02:59:56.700Z,3.08
2018-06-23T03:00:30.106Z,2.85
2018-06-23T03:01:03.516Z,3.25
2018-06-23T03:01:37.004Z,3.27
2018-06-23T03:02:10.392Z,2.90
2018-06-23T03:02:44.594Z,3.37
2018-06-23T03:03:18.000Z,3.08
2018-06-23T03:03:51.555Z,3.00
2018-06-23T03:04:24.999Z,3.27
2018-06-23T03:04:58.392Z,3.22
2018-06-23T03:05:31.780Z,3.45
2018-06-23T03:06:05.504Z,2.62
2018-06-23T03:06:39.029Z,4.15
2018-06-23T03:07:12.404Z,3.77
2018-06-23T03:07:48.561Z,3.30
2018-06-23T03:08:21.940Z,3.47
2018-06-23T03:08:55.315Z,4.20
2018-06-23T03:09:28.704Z,3.20
2018-06-23T03:10:02.098Z,3.55
2018-06-23T03:10:36.007Z,3.27
2018-06-23T03:11:09.552Z,3.05
2018-06-23T03:11:42.952Z,2.87
2018-06-23T03:12:16.367Z,4.00
2018-06-23T03:12:49.812Z,3.98
2018-06-23T03:13:23.222Z,3.52
2018-06-23T03:13:56.617Z,3.75
2018-06-23T03:14:30.201Z,4.12
2018-06-23T03:15:03.627Z,3.62
2018-06-23T03:15:37.642Z,3.20
2018-06-23T03:16:11.355Z,3.35
2018-06-23T03:16:44.748Z,3.40
2018-06-23T03:17:19.127Z,3.25
2018-06-23T03:17:52.716Z,3.67
2018-06-23T03:18:26.205Z,3.87
2018-06-23T03:18:59.735Z,3.15
2018-06-23T03:19:33.100Z,3.85
2018-06-23T03:20:06.706Z,3.00
2018-06-23T03:20:40.153Z,4.17
2018-06-23T03:21:13.526Z,3.58
2018-06-23T03:21:46.914Z,4.42
2018-06-23T03:22:20.369Z,3.35
2018-06-23T03:22:53.739Z,4.53
2018-06-23T03:23:27.119Z,3.55
2018-06-23T03:24:00.696Z,4.37
2018-06-23T03:24:34.262Z,3.47
2018-06-23T03:25:07.656Z,2.70
2018-06-23T03:25:41.212Z,3.50
2018-06-23T03:26:14.647Z,3.40
2018-06-23T03:26:48.030Z,5.10
2018-06-23T03:27:21.433Z,4.87
2018-06-23T03:27:54.854Z,4.15
2018-06-23T03:28:28.273Z,3.98
2018-06-23T03:29:01.626Z,4.15
2018-06-23T03:29:35.089Z,4.75
2018-06-23T03:30:08.490Z,3.80
2018-06-23T03:30:41.889Z,3.27
2018-06-23T03:31:15.307Z,4.62
2018-06-23T03:31:48.685Z,3.27
2018-06-23T03:32:22.058Z,4.10
2018-06-23T03:32:55.430Z,2.67
2018-06-23T03:33:29.105Z,4.12
2018-06-23T03:34:02.496Z,3.77
2018-06-23T03:34:36.006Z,3.42
2018-06-23T03:35:09.406Z,3.15
2018-06-23T03:35:43.003Z,3.95
2018-06-23T03:36:16.419Z,3.72
2018-06-23T03:36:49.809Z,3.55
2018-06-23T03:37:23.236Z,3.75
2018-06-23T03:37:56.666Z,3.83
2018-06-23T03:38:30.026Z,3.40
2018-06-23T03:39:03.765Z,4.60
2018-06-23T03:39:37.462Z,3.72
2018-06-23T03:40:10.852Z,3.85
2018-06-23T03:40:44.241Z,3.90
2018-06-23T03:41:17.638Z,3.37
2018-06-23T03:41:51.340Z,4.10
2018-06-23T03:42:24.716Z,3.87
2018-06-23T03:42:58.317Z,4.28
2018-06-23T03:43:31.803Z,4.30
2018-06-23T03:44:05.254Z,4.60
2018-06-23T03:44:38.639Z,5.72
2018-06-23T03:45:12.100Z,4.37
2018-06-23T03:45:47.199Z,3.60
2018-06-23T03:46:20.579Z,3.80
2018-06-23T03:46:53.989Z,4.92
2018-06-23T03:47:27.440Z,3.83
2018-06-23T03:48:00.903Z,4.15
2018-06-23T03:48:34.263Z,3.98
2018-06-23T03:49:07.607Z,4.30
2018-06-23T03:49:40.991Z,4.35
2018-06-23T03:50:14.374Z,5.00
2018-06-23T03:50:47.754Z,4.42
2018-06-23T03:51:21.176Z,5.22
2018-06-23T03:51:54.536Z,4.55
2018-06-23T03:52:27.966Z,5.15
2018-06-23T03:53:01.365Z,4.30
2018-06-23T03:53:34.924Z,4.85
2018-06-23T03:54:08.318Z,4.95
2018-06-23T03:54:41.744Z,3.40
2018-06-23T03:55:15.115Z,4.15
2018-06-23T03:55:48.515Z,4.50
2018-06-23T03:56:22.294Z,5.25
2018-06-23T03:56:55.707Z,3.98
2018-06-23T03:57:29.327Z,3.95
2018-06-23T03:58:02.705Z,3.45
2018-06-23T03:58:36.108Z,3.77
2018-06-23T03:59:09.493Z,3.92
2018-06-23T03:59:43.573Z,4.67
2018-06-23T04:00:16.937Z,4.10
2018-06-23T04:00:55.785Z,3.70
2018-06-23T04:01:29.182Z,4.15
2018-06-23T04:02:03.232Z,3.90
2018-06-23T04:02:36.595Z,4.67
2018-06-23T04:03:09.882Z,3.75
2018-06-23T04:03:43.437Z,3.75
2018-06-23T04:04:17.263Z,4.72
2018-06-23T04:04:50.859Z,3.65
2018-06-23T04:05:23.954Z,3.65
2018-06-23T04:05:57.331Z,4.22
2018-06-23T04:06:30.706Z,3.70
2018-06-23T04:07:04.126Z,3.70
2018-06-23T04:07:37.514Z,4.55
2018-06-23T04:08:10.886Z,4.90
2018-06-23T04:08:44.239Z,4.22
2018-06-23T04:09:17.732Z,3.83
2018-06-23T04:09:51.570Z,4.40
2018-06-23T04:10:24.918Z,3.80
2018-06-23T04:10:58.448Z,4.00
2018-06-23T04:11:32.451Z,3.80
2018-06-23T04:12:06.021Z,3.83
2018-06-23T04:12:39.397Z,4.53
2018-06-23T04:13:12.777Z,4.05
2018-06-23T04:13:46.151Z,4.75
2018-06-23T04:14:19.630Z,4.00
2018-06-23T04:14:53.017Z,4.72
2018-06-23T04:15:26.572Z,4.05
2018-06-23T04:16:00.150Z,4.60
2018-06-23T04:16:33.644Z,4.28
2018-06-23T04:17:07.013Z,4.80
2018-06-23T04:17:40.371Z,4.62
2018-06-23T04:18:13.792Z,4.53
2018-06-23T04:18:52.319Z,3.85
2018-06-23T04:19:25.699Z,4.20
2018-06-23T04:19:59.093Z,3.35
2018-06-23T04:20:32.636Z,3.92
2018-06-23T04:21:12.466Z,3.27
2018-06-23T04:21:45.849Z,4.22
2018-06-23T04:22:19.280Z,3.80
2018-06-23T04:22:52.617Z,3.45
2018-06-23T04:23:25.986Z,4.00
2018-06-23T04:23:59.684Z,3.83
2018-06-23T04:24:33.085Z,4.03
2018-06-23T04:25:06.463Z,3.80
2018-06-23T04:25:39.841Z,5.00
2018-06-23T04:26:13.208Z,3.67
2018-06-23T04:26:46.621Z,3.35
2018-06-23T04:27:19.988Z,3.80
2018-06-23T04:27:53.509Z,3.37
2018-06-23T04:28:26.848Z,4.70
2018-06-23T04:29:00.211Z,4.62
2018-06-23T04:29:33.679Z,3.65
2018-06-23T04:30:07.217Z,4.72
2018-06-23T04:30:40.649Z,4.10
2018-06-23T04:31:14.073Z,4.67
2018-06-23T04:31:47.441Z,4.15
2018-06-23T04:32:20.820Z,5.33
2018-06-23T04:32:54.149Z,7.53
2018-06-23T04:33:27.512Z,6.00
2018-06-23T04:34:40.768Z,3.25
2018-06-23T04:35:14.172Z,4.28
2018-06-23T04:35:47.847Z,4.20
2018-06-23T04:36:21.345Z,4.50
2018-06-23T04:36:54.764Z,3.77
2018-06-23T04:37:28.119Z,3.20
2018-06-23T04:38:01.492Z,4.22
2018-06-23T04:38:34.889Z,4.45
2018-06-23T04:39:08.511Z,5.25
2018-06-23T04:39:41.938Z,4.92
2018-06-23T04:40:15.998Z,4.50
2018-06-23T04:40:49.417Z,4.67
2018-06-23T04:41:22.985Z,3.98
2018-06-23T04:41:56.386Z,4.25
2018-06-23T04:42:30.349Z,4.15
2018-06-23T04:43:03.728Z,5.08
2018-06-23T04:43:37.827Z,4.05
2018-06-23T04:44:11.344Z,3.87
2018-06-23T04:44:44.735Z,4.53
2018-06-23T04:45:18.235Z,3.85
2018-06-23T04:45:51.791Z,3.67
2018-06-23T04:46:25.645Z,4.50
2018-06-23T04:46:59.031Z,4.97
2018-06-23T04:47:32.416Z,4.10
2018-06-23T04:48:06.017Z,4.55
2018-06-23T04:48:39.400Z,4.72
2018-06-23T04:49:12.812Z,4.37
2018-06-23T04:49:45.907Z,4.15
2018-06-23T04:50:19.312Z,3.62
2018-06-23T04:50:52.761Z,3.83
2018-06-23T04:51:26.684Z,4.62
2018-06-23T04:52:00.139Z,4.10
2018-06-23T04:52:33.524Z,4.15
2018-06-23T04:53:07.108Z,4.33
2018-06-23T04:53:43.169Z,3.47
2018-06-23T04:54:16.844Z,3.98
2018-06-23T04:54:50.261Z,5.00
2018-06-23T04:55:23.829Z,4.33
2018-06-23T04:55:57.204Z,3.67
2018-06-23T04:56:30.612Z,6.03
2018-06-23T04:57:04.049Z,4.78
2018-06-23T04:57:37.709Z,3.72
2018-06-23T04:58:11.089Z,4.17
2018-06-23T04:58:44.496Z,4.33
2018-06-23T04:59:17.876Z,4.15
2018-06-23T04:59:51.406Z,4.03
2018-06-23T05:00:25.434Z,4.17
2018-06-23T05:00:58.846Z,4.30
2018-06-23T05:01:32.252Z,4.90
2018-06-23T05:02:05.659Z,4.47
2018-06-23T05:02:39.057Z,4.53
2018-06-23T05:03:12.424Z,4.83
2018-06-23T05:03:46.132Z,4.00
2018-06-23T05:04:19.491Z,3.35
2018-06-23T05:04:52.877Z,3.62
2018-06-23T05:05:26.498Z,4.30
2018-06-23T05:05:59.884Z,3.80
2018-06-23T05:06:33.276Z,4.17
2018-06-23T05:07:06.727Z,4.10
2018-06-23T05:07:40.492Z,4.80
2018-06-23T05:08:13.921Z,3.58
2018-06-23T05:08:47.284Z,3.45
2018-06-23T05:09:20.636Z,3.58
2018-06-23T05:09:54.030Z,5.05
2018-06-23T05:10:27.508Z,3.65
2018-06-23T05:11:01.124Z,4.70
2018-06-23T05:11:35.743Z,4.78
2018-06-23T05:12:09.167Z,4.67
2018-06-23T05:12:42.536Z,5.55
2018-06-23T05:13:15.901Z,4.62
2018-06-23T05:13:49.315Z,4.97
2018-06-23T05:14:22.939Z,5.00
2018-06-23T05:14:56.408Z,4.80
2018-06-23T05:15:29.744Z,4.20
2018-06-23T05:16:03.508Z,5.33
2018-06-23T05:16:36.900Z,5.20
2018-06-23T05:17:10.868Z,5.15
2018-06-23T05:17:44.321Z,4.47
2018-06-23T05:18:17.684Z,4.53
2018-06-23T05:18:51.087Z,5.42
2018-06-23T05:19:24.485Z,4.55
2018-06-23T05:19:57.868Z,3.90
2018-06-23T05:20:31.280Z,4.70
2018-06-23T05:21:04.780Z,3.27
2018-06-23T05:21:38.169Z,4.62
2018-06-23T05:22:11.712Z,4.70
2018-06-23T05:22:45.875Z,4.15
2018-06-23T05:23:19.217Z,3.83
2018-06-23T05:23:53.359Z,3.20
2018-06-23T05:24:27.402Z,4.25
2018-06-23T05:25:01.046Z,4.67
2018-06-23T05:25:34.437Z,4.70
2018-06-23T05:26:08.017Z,5.03
2018-06-23T05:26:41.493Z,4.15
2018-06-23T05:27:14.844Z,4.70
2018-06-23T05:27:48.268Z,5.05
2018-06-23T05:28:21.644Z,4.05
2018-06-23T05:28:55.041Z,5.40
2018-06-23T05:29:28.444Z,5.00
2018-06-23T05:30:01.845Z,4.35
2018-06-23T05:30:35.226Z,3.80
2018-06-23T05:31:08.664Z,4.65
2018-06-23T05:31:42.076Z,3.80
2018-06-23T05:32:15.437Z,4.70
2018-06-23T05:32:48.857Z,4.12
2018-06-23T05:33:23.180Z,4.28
2018-06-23T05:33:56.557Z,4.58
2018-06-23T05:34:29.932Z,4.85
2018-06-23T05:35:03.490Z,4.17
2018-06-23T05:35:37.256Z,4.45
2018-06-23T05:36:10.756Z,4.17
2018-06-23T05:36:44.116Z,4.20
2018-06-23T05:37:17.497Z,3.67
2018-06-23T05:37:50.857Z,4.70
2018-06-23T05:38:24.636Z,5.12
2018-06-23T05:38:58.031Z,4.62
2018-06-23T05:39:31.616Z,5.40
2018-06-23T05:40:05.117Z,4.33
2018-06-23T05:40:38.528Z,3.62
2018-06-23T05:41:11.919Z,5.30
2018-06-23T05:41:45.306Z,3.95
2018-06-23T05:42:18.691Z,3.75
2018-06-23T05:42:52.202Z,4.30
2018-06-23T05:43:25.557Z,4.17
2018-06-23T05:43:59.787Z,4.75
2018-06-23T05:44:33.360Z,4.08
2018-06-23T05:45:07.096Z,3.60
2018-06-23T05:45:40.824Z,3.92
2018-06-23T05:46:14.273Z,3.70
2018-06-23T05:46:47.741Z,4.50
2018-06-23T05:47:21.691Z,3.17
2018-06-23T05:47:55.074Z,3.60
2018-06-23T05:48:28.932Z,3.87
2018-06-23T05:49:02.440Z,4.28
2018-06-23T05:49:35.803Z,3.27
2018-06-23T05:50:09.438Z,3.40
2018-06-23T05:50:42.817Z,3.47
2018-06-23T05:51:16.240Z,4.22
2018-06-23T05:51:49.580Z,3.80
2018-06-23T05:52:22.966Z,3.52
2018-06-23T05:52:56.324Z,4.17
2018-06-23T05:53:30.223Z,4.22
2018-06-23T05:54:04.101Z,3.55
2018-06-23T05:54:37.878Z,3.60
2018-06-23T05:55:11.348Z,4.15
2018-06-23T05:55:44.962Z,4.08
2018-06-23T05:56:18.359Z,4.10
2018-06-23T05:56:51.767Z,3.05
2018-06-23T05:57:25.165Z,3.65
2018-06-23T05:57:58.772Z,3.92
2018-06-23T05:58:32.193Z,3.58
2018-06-23T05:59:05.732Z,3.85
2018-06-23T05:59:39.155Z,4.05
2018-06-23T06:00:12.643Z,3.85
2018-06-23T06:00:46.086Z,4.17
2018-06-23T06:01:19.848Z,3.87
2018-06-23T06:01:53.567Z,4.42
2018-06-23T06:02:27.603Z,4.28
2018-06-23T06:03:01.333Z,3.83
2018-06-23T06:03:34.901Z,3.55
2018-06-23T06:04:08.427Z,3.30
2018-06-23T06:04:42.468Z,3.87
2018-06-23T06:05:15.865Z,3.47
2018-06-23T06:05:49.917Z,3.80
2018-06-23T06:06:23.371Z,3.60
2018-06-23T06:06:56.647Z,4.33
2018-06-23T06:07:30.320Z,3.87
2018-06-23T06:08:04.016Z,3.40
2018-06-23T06:08:37.450Z,3.08
2018-06-23T06:09:11.182Z,3.22
2018-06-23T06:09:44.773Z,3.90
2018-06-23T06:10:18.291Z,3.12
2018-06-23T06:10:51.790Z,3.85
2018-06-23T06:11:25.197Z,3.62
2018-06-23T06:11:58.610Z,3.72
2018-06-23T06:12:31.961Z,4.60
2018-06-23T06:13:06.001Z,3.08
2018-06-23T06:13:39.378Z,3.35
2018-06-23T06:14:12.781Z,3.10
2018-06-23T06:14:46.195Z,3.15
2018-06-23T06:15:19.985Z,2.80
2018-06-23T06:15:53.764Z,4.47
2018-06-23T06:16:31.532Z,3.02
2018-06-23T06:17:37.883Z,3.50
2018-06-23T06:18:11.308Z,3.92
2018-06-23T06:18:44.893Z,3.35
2018-06-23T06:19:18.303Z,3.00
2018-06-23T06:19:53.685Z,3.72
2018-06-23T06:20:27.170Z,3.00
2018-06-23T06:21:00.563Z,3.35
2018-06-23T06:21:33.946Z,3.62
2018-06-23T06:22:07.279Z,3.00
2018-06-23T06:22:41.890Z,3.40
2018-06-23T06:23:15.240Z,3.52
2018-06-23T06:23:48.685Z,2.80
2018-06-23T06:24:22.001Z,3.17
2018-06-23T06:24:56.326Z,2.98
2018-06-23T06:25:29.702Z,3.62
2018-06-23T06:26:03.148Z,2.90
2018-06-23T06:26:36.508Z,3.10
2018-06-23T06:27:09.895Z,3.37
2018-06-23T06:27:43.426Z,3.33
2018-06-23T06:28:16.753Z,3.17
2018-06-23T06:28:50.088Z,3.20
2018-06-23T06:29:23.486Z,3.47
2018-06-23T06:29:57.426Z,3.25
2018-06-23T06:30:30.829Z,3.33
2018-06-23T06:31:04.232Z,3.42
2018-06-23T06:31:37.685Z,3.12
2018-06-23T06:32:11.187Z,3.50
2018-06-23T06:32:44.796Z,3.20
2018-06-23T06:33:18.282Z,3.50
2018-06-23T06:33:52.090Z,3.33
2018-06-23T06:34:25.813Z,2.87
2018-06-23T06:34:59.416Z,4.17
2018-06-23T06:35:32.837Z,3.30
2018-06-23T06:36:06.319Z,3.33
2018-06-23T06:36:39.709Z,3.70
2018-06-23T06:37:13.037Z,4.55
2018-06-23T06:37:46.475Z,3.52
2018-06-23T06:38:20.309Z,3.27
2018-06-23T06:38:54.660Z,3.17
2018-06-23T06:39:28.132Z,3.50
2018-06-23T06:40:01.543Z,3.15
2018-06-23T06:40:34.961Z,3.40
2018-06-23T06:41:08.408Z,4.33
2018-06-23T06:41:42.238Z,3.70
2018-06-23T06:42:15.990Z,4.50
2018-06-23T06:42:49.331Z,3.72
2018-06-23T06:43:22.699Z,4.25
2018-06-23T06:43:56.031Z,3.60
2018-06-23T06:44:30.212Z,4.33
2018-06-23T06:45:03.632Z,3.33
2018-06-23T06:45:36.736Z,4.90
2018-06-23T06:46:09.831Z,3.90
2018-06-23T06:46:43.047Z,4.17
2018-06-23T06:47:17.377Z,5.62
2018-06-23T06:47:50.461Z,3.47
2018-06-23T06:48:23.812Z,3.65
2018-06-23T06:48:57.011Z,3.45
2018-06-23T06:49:30.474Z,3.02
2018-06-23T06:50:03.761Z,3.37
2018-06-23T06:50:36.915Z,4.47
2018-06-23T06:51:10.056Z,3.45
2018-06-23T06:51:43.343Z,3.00
2018-06-23T06:52:16.808Z,3.37
2018-06-23T06:52:50.282Z,3.72
2018-06-23T06:53:23.384Z,3.92
2018-06-23T06:53:56.506Z,3.87
2018-06-23T06:54:29.985Z,3.50
2018-06-23T06:55:03.188Z,3.80
2018-06-23T06:55:36.265Z,3.55
2018-06-23T06:56:09.386Z,5.50
2018-06-23T06:56:42.755Z,3.52
2018-06-23T06:57:16.013Z,3.92
2018-06-23T06:57:49.091Z,2.83
2018-06-23T06:58:22.179Z,3.10
2018-06-23T06:58:55.272Z,3.05
2018-06-23T06:59:28.391Z,3.60
2018-06-23T07:00:01.537Z,3.77
2018-06-23T07:00:34.643Z,3.35
2018-06-23T07:01:07.764Z,3.22
2018-06-23T07:01:41.012Z,3.27
2018-06-23T07:02:14.238Z,4.08
2018-06-23T07:02:47.810Z,3.92
2018-06-23T07:03:20.982Z,3.62
2018-06-23T07:03:54.072Z,4.37
2018-06-23T07:04:27.270Z,4.05
2018-06-23T07:05:00.378Z,4.30
2018-06-23T07:05:33.499Z,3.80
2018-06-23T07:06:06.604Z,3.67
2018-06-23T07:06:39.881Z,3.90
2018-06-23T07:07:12.999Z,4.58
2018-06-23T07:07:46.084Z,4.08
2018-06-23T07:08:19.465Z,4.05
2018-06-23T07:08:52.575Z,4.25
2018-06-23T07:09:25.698Z,3.35
2018-06-23T07:09:58.781Z,3.60
2018-06-23T07:10:31.898Z,3.55
2018-06-23T07:11:05.271Z,4.20
2018-06-23T07:11:38.657Z,3.55
2018-06-23T07:12:11.732Z,4.58
2018-06-23T07:12:45.530Z,3.62
2018-06-23T07:13:19.059Z,3.58
2018-06-23T07:13:52.572Z,3.52
2018-06-23T07:14:26.089Z,4.30
2018-06-23T07:14:59.261Z,3.70
2018-06-23T07:15:32.453Z,3.75
2018-06-23T07:16:05.800Z,4.40
2018-06-23T07:16:39.952Z,3.60
2018-06-23T07:17:13.323Z,3.60
2018-06-23T07:17:47.061Z,4.00
2018-06-23T07:18:22.671Z,2.80
2018-06-23T07:18:56.120Z,3.77
2018-06-23T07:19:29.228Z,3.20
2018-06-23T07:20:02.295Z,3.42
2018-06-23T07:20:35.402Z,3.30
2018-06-23T07:21:10.012Z,3.08
2018-06-23T07:21:43.529Z,3.75
2018-06-23T07:22:17.392Z,2.98
2018-06-23T07:22:50.709Z,3.17
2018-06-23T07:23:23.769Z,2.80
2018-06-23T07:23:56.970Z,3.60
2018-06-23T07:24:29.952Z,3.95
2018-06-23T07:25:03.392Z,3.30
2018-06-23T07:25:36.479Z,3.25
2018-06-23T07:26:09.536Z,2.98
2018-06-23T07:26:42.582Z,3.02
2018-06-23T07:27:15.673Z,3.08
2018-06-23T07:27:49.738Z,3.25
2018-06-23T07:28:23.385Z,3.10
2018-06-23T07:28:58.140Z,3.30
2018-06-23T07:29:31.767Z,3.25
2018-06-23T07:30:05.328Z,3.55
2018-06-23T07:30:38.713Z,3.35
2018-06-23T07:31:11.855Z,3.20
2018-06-23T07:31:45.063Z,3.40
2018-06-23T07:32:18.229Z,4.15
2018-06-23T07:32:51.311Z,3.27
2018-06-23T07:33:24.753Z,3.35
2018-06-23T07:33:57.974Z,2.98